Time;durP1;ratioP1;P1;durP2;ratioP2;P2;SDS_P1;SDS_P2;PMS_P1;PMS_P2;Temp;Humidity;BMP_temperature;BMP_pressure;BME280_temperature;BME280_humidity;BME280_pressure;Samples;Min_cycle;Max_cycle;Signal;HPM_P1;HPM_P2
2021/11/22 01:40:15;;;;;;;0.10;0.10;;;7.00;99.90;;;;;;4760845;30;20284;-80
2021/11/22 01:42:41;;;;;;;0.37;0.30;;;6.90;99.90;;;;;;4777464;29;20197;-78
2021/11/22 01:45:10;;;;;;;1.60;0.77;;;6.90;99.90;;;;;;4777300;29;20198;-79
2021/11/22 01:47:36;;;;;;;0.30;0.30;;;6.90;99.90;;;;;;4852508;28;20195;-78
2021/11/22 01:50:08;;;;;;;0.10;0.10;;;6.90;99.90;;;;;;4949890;28;20190;-79
2021/11/22 01:52:33;;;;;;;0.10;0.10;;;6.90;99.90;;;;;;4983512;28;20547;-80
2021/11/22 01:54:59;;;;;;;0.10;0.10;;;7.00;99.90;;;;;;5034759;28;20190;-79
2021/11/22 01:57:24;;;;;;;0.20;0.20;;;6.90;99.90;;;;;;5099407;28;20211;-79
2021/11/22 01:59:51;;;;;;;0.13;0.13;;;6.90;99.90;;;;;;5102540;28;20258;-79
2021/11/22 02:02:16;;;;;;;0.10;0.10;;;6.90;99.90;;;;;;5104708;28;20198;-79
2021/11/22 02:04:42;;;;;;;0.30;0.30;;;6.80;99.90;;;;;;5107628;28;20172;-79
2021/11/22 02:07:07;;;;;;;0.17;0.17;;;6.80;99.90;;;;;;5102190;28;20541;-79
2021/11/22 02:09:33;;;;;;;0.40;0.20;;;6.80;99.90;;;;;;5089438;28;20782;-79
2021/11/22 02:11:59;;;;;;;0.10;0.10;;;6.70;99.90;;;;;;5089575;28;20231;-79
2021/11/22 02:14:25;;;;;;;0.17;0.17;;;6.70;99.90;;;;;;5093688;28;20594;-79
2021/11/22 02:16:51;;;;;;;0.17;0.17;;;6.70;99.90;;;;;;5092141;28;20204;-79
2021/11/22 02:19:17;;;;;;;0.30;0.20;;;6.70;99.90;;;;;;5084169;28;20617;-79
2021/11/22 02:21:43;;;;;;;0.93;0.70;;;6.70;99.90;;;;;;5089424;28;20208;-79
2021/11/22 02:24:10;;;;;;;0.20;0.20;;;6.70;99.90;;;;;;5091203;28;20187;-79
2021/11/22 02:26:37;;;;;;;0.27;0.27;;;6.70;99.90;;;;;;5092494;28;20185;-78
2021/11/22 02:29:04;;;;;;;0.33;0.33;;;6.70;99.90;;;;;;5091780;28;20550;-79
2021/11/22 02:31:30;;;;;;;0.20;0.20;;;6.70;99.90;;;;;;5089932;28;20200;-79
2021/11/22 02:33:56;;;;;;;0.30;0.30;;;6.80;99.90;;;;;;5093466;28;20209;-79
2021/11/22 02:36:22;;;;;;;0.20;0.20;;;6.70;99.90;;;;;;5090623;28;20852;-81
2021/11/22 02:38:48;;;;;;;0.23;0.23;;;6.70;99.90;;;;;;5090900;28;20179;-81
2021/11/22 02:41:16;;;;;;;0.20;0.20;;;6.70;99.90;;;;;;5094562;28;20565;-80
2021/11/22 02:43:44;;;;;;;0.50;0.50;;;6.70;99.90;;;;;;5094327;28;20183;-81
2021/11/22 02:46:10;;;;;;;0.73;0.20;;;6.70;99.90;;;;;;5091147;28;20261;-81
2021/11/22 02:48:36;;;;;;;0.30;0.30;;;6.70;99.90;;;;;;5094329;28;20592;-80
2021/11/22 02:51:05;;;;;;;0.10;0.10;;;6.70;99.90;;;;;;5091112;28;20211;-81
2021/11/22 02:53:30;;;;;;;1.87;0.43;;;6.70;99.90;;;;;;5093961;28;20180;-81
2021/11/22 02:56:06;;;;;;;2.03;0.30;;;6.70;99.90;;;;;;5094165;28;20276;-80
2021/11/22 02:58:35;;;;;;;0.10;0.10;;;6.70;99.90;;;;;;5094047;28;20177;-80
2021/11/22 03:01:02;;;;;;;0.10;0.10;;;6.70;99.90;;;;;;5089257;28;20553;-81
2021/11/22 03:03:30;;;;;;;1.40;0.40;;;6.70;99.90;;;;;;5089680;28;20207;-80
2021/11/22 03:06:04;;;;;;;0.57;0.50;;;6.70;99.90;;;;;;5093938;28;20817;-81
2021/11/22 03:08:30;;;;;;;3.70;0.20;;;6.70;99.90;;;;;;5086906;28;20670;-81
2021/11/22 03:10:56;;;;;;;1.33;1.23;;;6.70;99.90;;;;;;5092376;28;20753;-81
2021/11/22 03:13:21;;;;;;;0.43;0.10;;;6.60;99.90;;;;;;5085862;28;20269;-80
2021/11/22 03:15:47;;;;;;;0.40;0.40;;;6.60;99.90;;;;;;5095920;28;20237;-80
2021/11/22 03:18:13;;;;;;;0.20;0.20;;;6.60;99.90;;;;;;5094854;28;20675;-80
2021/11/22 03:20:39;;;;;;;0.43;0.40;;;6.60;99.90;;;;;;5086434;28;20189;-80
2021/11/22 03:23:05;;;;;;;0.10;0.10;;;6.50;99.90;;;;;;5090983;28;20263;-80
2021/11/22 03:25:31;;;;;;;0.10;0.10;;;6.60;99.90;;;;;;5093267;28;20181;-80
2021/11/22 03:27:57;;;;;;;0.20;0.20;;;6.50;99.90;;;;;;5092931;28;20176;-80
2021/11/22 03:30:23;;;;;;;0.10;0.10;;;6.50;99.90;;;;;;5087815;28;20865;-80
2021/11/22 03:32:48;;;;;;;0.20;0.20;;;6.50;99.90;;;;;;5093787;28;20234;-80
2021/11/22 03:35:15;;;;;;;0.13;0.13;;;6.50;99.90;;;;;;5089178;28;20219;-81
2021/11/22 03:37:43;;;;;;;0.20;0.20;;;6.50;99.90;;;;;;5100659;28;20556;-80
2021/11/22 03:40:09;;;;;;;0.73;0.73;;;6.50;99.90;;;;;;5096656;28;20679;-81
2021/11/22 03:42:41;;;;;;;1.30;1.30;;;6.50;99.90;;;;;;5096164;28;20181;-81
2021/11/22 03:45:10;;;;;;;0.10;0.10;;;6.60;99.90;;;;;;5096572;28;20274;-80
2021/11/22 03:47:35;;;;;;;0.00;0.00;;;6.60;99.90;;;;;;5090931;28;20188;-80
2021/11/22 03:50:02;;;;;;;0.30;0.30;;;6.50;99.90;;;;;;5094054;28;20186;-81
2021/11/22 03:52:28;;;;;;;0.20;0.20;;;6.60;99.90;;;;;;5094322;28;20255;-80
2021/11/22 03:54:53;;;;;;;0.87;0.20;;;6.60;99.90;;;;;;5094436;28;20188;-81
2021/11/22 03:57:19;;;;;;;0.27;0.27;;;6.60;99.90;;;;;;5093665;28;20207;-80
2021/11/22 03:59:46;;;;;;;0.13;0.13;;;6.50;99.90;;;;;;5091502;28;20216;-80
2021/11/22 04:02:12;;;;;;;0.10;0.10;;;6.50;99.90;;;;;;5093461;28;20195;-81
2021/11/22 04:04:38;;;;;;;0.43;0.33;;;6.50;99.90;;;;;;5087554;28;20199;-80
2021/11/22 04:07:04;;;;;;;0.20;0.20;;;6.50;99.90;;;;;;5091778;28;20191;-81
2021/11/22 04:09:29;;;;;;;0.27;0.27;;;6.40;99.90;;;;;;5085644;28;20191;-81
2021/11/22 04:11:55;;;;;;;0.63;0.63;;;6.50;99.90;;;;;;5091118;28;20294;-81
2021/11/22 04:14:20;;;;;;;0.17;0.17;;;6.50;99.90;;;;;;5093799;28;20188;-81
2021/11/22 04:16:46;;;;;;;0.53;0.53;;;6.50;99.90;;;;;;5082555;28;20220;-80
2021/11/22 04:19:11;;;;;;;0.20;0.20;;;6.40;99.90;;;;;;5091799;28;20180;-80
2021/11/22 04:21:37;;;;;;;0.20;0.20;;;6.40;99.90;;;;;;5089626;28;20209;-80
2021/11/22 04:24:03;;;;;;;0.40;0.40;;;6.40;99.90;;;;;;5093038;28;20197;-80
2021/11/22 04:26:28;;;;;;;0.20;0.20;;;6.40;99.90;;;;;;5092484;28;20194;-80
2021/11/22 04:28:55;;;;;;;0.40;0.40;;;6.40;99.90;;;;;;5094433;28;20240;-81
2021/11/22 04:31:20;;;;;;;0.33;0.33;;;6.40;99.90;;;;;;5092012;28;20270;-81
2021/11/22 04:33:46;;;;;;;1.63;0.33;;;6.40;99.90;;;;;;5092912;28;20176;-82
2021/11/22 04:36:12;;;;;;;0.90;0.60;;;6.40;99.90;;;;;;5098931;28;20684;-81
2021/11/22 04:38:37;;;;;;;0.10;0.10;;;6.40;99.90;;;;;;5099309;28;20192;-80
2021/11/22 04:41:03;;;;;;;0.20;0.20;;;6.30;99.90;;;;;;5097290;28;20201;-80
2021/11/22 04:43:29;;;;;;;0.20;0.20;;;6.30;99.90;;;;;;5089834;28;20220;-80
2021/11/22 04:45:54;;;;;;;0.10;0.10;;;6.30;99.90;;;;;;5095871;28;20265;-81
2021/11/22 04:48:20;;;;;;;0.30;0.30;;;6.30;99.90;;;;;;5095482;28;20178;-81
2021/11/22 04:50:46;;;;;;;0.40;0.40;;;6.30;99.90;;;;;;5095105;28;20625;-80
2021/11/22 04:53:12;;;;;;;0.10;0.10;;;6.30;99.90;;;;;;5095116;28;20178;-80
2021/11/22 04:55:38;;;;;;;0.10;0.10;;;6.20;99.90;;;;;;5087546;28;20200;-81
2021/11/22 04:58:05;;;;;;;0.30;0.30;;;6.20;99.90;;;;;;5090984;28;20181;-80
2021/11/22 05:00:31;;;;;;;0.10;0.10;;;6.20;99.90;;;;;;5093947;28;20211;-80
2021/11/22 05:02:57;;;;;;;0.37;0.37;;;6.20;99.90;;;;;;5093447;28;20169;-80
2021/11/22 05:05:23;;;;;;;0.20;0.20;;;6.10;99.90;;;;;;5088226;28;20645;-80
2021/11/22 05:07:49;;;;;;;1.93;0.33;;;6.10;99.90;;;;;;5093358;28;20176;-81
2021/11/22 05:10:17;;;;;;;3.03;0.30;;;6.00;99.90;;;;;;5091650;28;20204;-81
2021/11/22 05:12:42;;;;;;;0.67;0.30;;;6.00;99.90;;;;;;5093219;28;20177;-80
2021/11/22 05:15:08;;;;;;;0.10;0.10;;;6.00;99.90;;;;;;5091143;28;20184;-79
2021/11/22 05:17:34;;;;;;;0.37;0.37;;;6.00;99.90;;;;;;5094047;28;20211;-81
2021/11/22 05:20:00;;;;;;;0.17;0.13;;;5.90;99.90;;;;;;5096640;28;20184;-80
2021/11/22 05:22:26;;;;;;;0.10;0.10;;;5.90;99.90;;;;;;5092720;28;20194;-80
2021/11/22 05:24:52;;;;;;;0.30;0.30;;;5.90;99.90;;;;;;5093844;28;20221;-79
2021/11/22 05:27:24;;;;;;;0.10;0.10;;;5.80;99.90;;;;;;5091573;28;20195;-80
2021/11/22 05:29:51;;;;;;;0.10;0.10;;;5.80;99.90;;;;;;5091903;28;20213;-81
2021/11/22 05:32:18;;;;;;;0.10;0.10;;;5.70;99.90;;;;;;5090992;28;20692;-80
2021/11/22 05:34:46;;;;;;;0.60;0.60;;;5.70;99.90;;;;;;5092593;28;20272;-81
2021/11/22 05:37:12;;;;;;;0.10;0.10;;;5.70;99.90;;;;;;5092329;28;20621;-80
2021/11/22 05:39:38;;;;;;;0.00;0.00;;;5.70;99.90;;;;;;5087186;28;20172;-80
2021/11/22 05:42:04;;;;;;;0.30;0.20;;;5.60;99.90;;;;;;5090491;28;20270;-81
2021/11/22 05:44:33;;;;;;;0.10;0.10;;;5.50;99.90;;;;;;5081661;28;20186;-81
2021/11/22 05:46:59;;;;;;;0.10;0.10;;;5.50;99.90;;;;;;5097008;28;20194;-80
2021/11/22 05:49:24;;;;;;;0.40;0.40;;;5.50;99.90;;;;;;5092706;28;20386;-80
2021/11/22 05:51:50;;;;;;;0.30;0.30;;;5.40;99.90;;;;;;5095025;28;20205;-80
2021/11/22 05:54:16;;;;;;;0.37;0.20;;;5.40;99.90;;;;;;5097323;28;20180;-81
2021/11/22 05:56:43;;;;;;;0.03;0.03;;;5.40;99.90;;;;;;5093642;28;20630;-81
2021/11/22 05:59:08;;;;;;;0.40;0.40;;;5.40;99.90;;;;;;5096510;28;20229;-80
2021/11/22 06:01:34;;;;;;;2.60;0.33;;;5.40;99.90;;;;;;5096279;28;20218;-81
2021/11/22 06:03:59;;;;;;;0.27;0.27;;;5.40;99.90;;;;;;5096183;28;20200;-82
2021/11/22 06:06:25;;;;;;;0.10;0.10;;;5.40;99.90;;;;;;5097977;28;20208;-82
2021/11/22 06:08:50;;;;;;;0.10;0.10;;;5.30;99.90;;;;;;5089682;28;20276;-83
2021/11/22 06:11:16;;;;;;;2.63;1.30;;;5.30;99.90;;;;;;5094766;28;20205;-81
2021/11/22 06:13:42;;;;;;;0.43;0.43;;;5.40;99.90;;;;;;5096682;28;20748;-80
2021/11/22 06:16:07;;;;;;;0.40;0.30;;;5.40;99.90;;;;;;5096046;28;20283;-80
2021/11/22 06:18:33;;;;;;;0.20;0.20;;;5.40;99.90;;;;;;5095314;28;20188;-81
2021/11/22 06:20:58;;;;;;;3.00;1.50;;;5.30;99.90;;;;;;5086431;28;20214;-81
2021/11/22 06:23:24;;;;;;;0.10;0.10;;;5.30;99.90;;;;;;5087708;28;20218;-80
2021/11/22 06:25:50;;;;;;;0.10;0.10;;;5.40;99.90;;;;;;5089480;28;20783;-81
2021/11/22 06:28:16;;;;;;;0.10;0.10;;;5.40;99.90;;;;;;5095852;28;20207;-81
2021/11/22 06:30:41;;;;;;;0.17;0.17;;;5.30;99.90;;;;;;5095593;28;20200;-82
2021/11/22 06:33:07;;;;;;;0.10;0.10;;;5.40;99.90;;;;;;5095780;28;20386;-82
2021/11/22 06:35:36;;;;;;;0.20;0.20;;;5.40;99.90;;;;;;5095874;28;20681;-81
2021/11/22 06:38:01;;;;;;;0.30;0.30;;;5.40;99.90;;;;;;5091737;28;20669;-82
2021/11/22 06:40:27;;;;;;;0.20;0.20;;;5.40;99.90;;;;;;5096235;28;20180;-81
2021/11/22 06:42:53;;;;;;;0.10;0.10;;;5.40;99.90;;;;;;5095743;28;20182;-82
2021/11/22 06:46:00;;;;;;;0.30;0.20;;;5.40;99.90;;;;;;5101057;28;20179;-82
2021/11/22 06:48:32;;;;;;;0.93;0.30;;;5.40;99.90;;;;;;5083278;28;20176;-82
2021/11/22 06:50:59;;;;;;;0.27;0.27;;;5.50;99.90;;;;;;5077106;28;20199;-82
2021/11/22 06:53:24;;;;;;;0.20;0.20;;;5.50;99.90;;;;;;5086594;28;20645;-83
2021/11/22 06:55:50;;;;;;;0.53;0.30;;;5.50;99.90;;;;;;5084594;28;20207;-83
2021/11/22 06:58:16;;;;;;;0.10;0.10;;;5.40;99.90;;;;;;5091776;28;20264;-82
2021/11/22 07:00:41;;;;;;;0.10;0.10;;;5.40;99.90;;;;;;5079097;28;20196;-82
2021/11/22 07:03:07;;;;;;;0.30;0.30;;;5.40;99.90;;;;;;5092627;28;20178;-83
2021/11/22 07:05:33;;;;;;;0.30;0.30;;;5.40;99.90;;;;;;5088072;28;20781;-80
2021/11/22 07:08:07;;;;;;;0.50;0.30;;;5.50;99.90;;;;;;5083112;28;20180;-81
2021/11/22 07:10:33;;;;;;;0.20;0.20;;;5.50;99.90;;;;;;5085703;28;20189;-80
2021/11/22 07:12:59;;;;;;;0.20;0.20;;;5.50;99.90;;;;;;5090212;28;20219;-81
2021/11/22 07:15:31;;;;;;;0.17;0.17;;;5.50;99.90;;;;;;5092397;28;20586;-80
2021/11/22 07:17:57;;;;;;;0.10;0.10;;;5.50;99.90;;;;;;5088461;28;20176;-80
2021/11/22 07:20:22;;;;;;;0.90;0.83;;;5.50;99.90;;;;;;5088352;28;20266;-80
2021/11/22 07:22:48;;;;;;;0.47;0.47;;;5.50;99.90;;;;;;5090162;28;20236;-81
2021/11/22 07:25:14;;;;;;;0.27;0.27;;;5.50;99.90;;;;;;5087110;28;20276;-80
2021/11/22 07:27:39;;;;;;;0.30;0.30;;;5.60;99.90;;;;;;5091954;28;20195;-80
2021/11/22 07:30:07;;;;;;;0.40;0.20;;;5.60;99.90;;;;;;5089398;28;20616;-81
2021/11/22 07:32:32;;;;;;;0.20;0.20;;;5.60;99.90;;;;;;5092306;28;20204;-82
2021/11/22 07:34:59;;;;;;;0.10;0.10;;;5.60;99.90;;;;;;5090258;28;20271;-82
2021/11/22 07:37:25;;;;;;;0.20;0.10;;;5.60;99.90;;;;;;5090071;28;20204;-81
2021/11/22 07:39:50;;;;;;;0.97;0.47;;;5.60;99.90;;;;;;5086301;28;20316;-81
2021/11/22 07:42:16;;;;;;;0.50;0.50;;;5.70;99.90;;;;;;5088215;28;20582;-81
2021/11/22 07:44:44;;;;;;;0.20;0.20;;;5.80;99.90;;;;;;5082092;28;20176;-81
2021/11/22 07:47:10;;;;;;;0.10;0.10;;;5.90;99.90;;;;;;5083573;28;21765;-83
2021/11/22 07:49:36;;;;;;;0.43;0.43;;;5.90;99.90;;;;;;5081079;28;20307;-81
2021/11/22 07:52:03;;;;;;;0.30;0.30;;;5.90;99.90;;;;;;5090449;28;20217;-82
2021/11/22 07:54:28;;;;;;;0.10;0.10;;;6.10;99.90;;;;;;5083452;28;20257;-82
2021/11/22 07:56:54;;;;;;;0.60;0.40;;;6.20;99.90;;;;;;5082982;28;20360;-83
2021/11/22 07:59:20;;;;;;;0.30;0.30;;;6.30;99.90;;;;;;5086335;28;20226;-82
2021/11/22 08:01:46;;;;;;;0.20;0.20;;;6.40;99.90;;;;;;5092789;28;20216;-82
2021/11/22 08:04:15;;;;;;;0.10;0.10;;;6.40;99.90;;;;;;5087707;28;20189;-81
2021/11/22 08:06:45;;;;;;;0.20;0.20;;;6.50;99.90;;;;;;5077130;28;20276;-82
2021/11/22 08:09:17;;;;;;;0.30;0.30;;;6.50;99.90;;;;;;5077567;28;20645;-83
2021/11/22 08:14:27;;;;;;;0.10;0.10;;;6.60;99.90;;;;;;5080626;28;20229;-82
2021/11/22 08:16:52;;;;;;;0.20;0.20;;;6.60;99.90;;;;;;5086586;28;20434;-81
2021/11/22 08:19:19;;;;;;;0.10;0.10;;;6.60;99.90;;;;;;5090403;28;20231;-82
2021/11/22 08:21:45;;;;;;;0.50;0.40;;;6.80;99.90;;;;;;5084628;28;20201;-81
2021/11/22 08:24:11;;;;;;;0.17;0.17;;;6.70;99.90;;;;;;5091594;28;20187;-81
2021/11/22 08:26:36;;;;;;;0.80;0.70;;;6.80;99.90;;;;;;5083244;28;20547;-82
2021/11/22 08:29:02;;;;;;;0.33;0.33;;;6.80;99.90;;;;;;5099542;28;20189;-81
2021/11/22 08:31:28;;;;;;;1.80;0.63;;;6.90;99.90;;;;;;5116598;27;20208;-81
2021/11/22 08:33:53;;;;;;;0.20;0.20;;;7.00;99.90;;;;;;5084244;28;20191;-81
2021/11/22 08:36:20;;;;;;;0.20;0.20;;;7.00;99.90;;;;;;5091035;28;20194;-80
2021/11/22 08:38:46;;;;;;;0.57;0.57;;;7.10;99.90;;;;;;5084664;28;20182;-80
2021/11/22 08:41:11;;;;;;;0.10;0.10;;;7.10;99.90;;;;;;5084825;28;20775;-80
2021/11/22 08:43:37;;;;;;;0.20;0.20;;;7.30;99.90;;;;;;5079978;28;20188;-82
2021/11/22 08:46:02;;;;;;;0.13;0.13;;;7.20;99.90;;;;;;5090040;28;20189;-82
2021/11/22 08:48:28;;;;;;;0.10;0.10;;;7.40;99.90;;;;;;5084263;28;20176;-81
2021/11/22 08:50:54;;;;;;;0.20;0.20;;;7.50;99.90;;;;;;5088013;28;20211;-81
2021/11/22 08:53:20;;;;;;;0.30;0.30;;;7.60;99.90;;;;;;5088458;28;20203;-80
2021/11/22 08:55:46;;;;;;;0.10;0.10;;;7.60;99.90;;;;;;5088634;28;20212;-80
2021/11/22 08:58:11;;;;;;;0.10;0.10;;;7.70;99.90;;;;;;5083108;28;20552;-81
2021/11/22 09:00:39;;;;;;;0.13;0.13;;;7.80;99.90;;;;;;5078302;28;20765;-80
2021/11/22 09:03:04;;;;;;;0.20;0.20;;;7.80;99.90;;;;;;5087641;28;20649;-80
2021/11/22 09:05:30;;;;;;;0.10;0.10;;;7.70;99.90;;;;;;5088733;28;20191;-81
2021/11/22 09:07:56;;;;;;;0.20;0.20;;;7.70;99.90;;;;;;5087885;28;20175;-81
2021/11/22 09:10:23;;;;;;;0.20;0.20;;;7.80;99.90;;;;;;5083613;28;20272;-79
2021/11/22 09:12:49;;;;;;;0.30;0.20;;;7.60;99.90;;;;;;5087965;28;20271;-80
2021/11/22 09:15:16;;;;;;;0.20;0.20;;;7.80;99.90;;;;;;5085591;28;20179;-80
2021/11/22 09:17:42;;;;;;;0.20;0.20;;;7.70;99.90;;;;;;5081190;28;20236;-80
2021/11/22 09:20:09;;;;;;;0.10;0.10;;;7.80;99.90;;;;;;5092088;28;20193;-80
2021/11/22 09:22:35;;;;;;;0.10;0.10;;;8.00;99.90;;;;;;5084030;28;20187;-80
2021/11/22 09:25:03;;;;;;;0.00;0.00;;;7.90;99.90;;;;;;5087391;28;20173;-82
2021/11/22 09:27:29;;;;;;;0.20;0.20;;;7.80;99.90;;;;;;5076017;28;20183;-81
2021/11/22 09:29:55;;;;;;;0.10;0.10;;;7.70;99.90;;;;;;5080303;28;20275;-80
2021/11/22 09:32:20;;;;;;;1.37;0.23;;;7.70;99.90;;;;;;5086287;28;20290;-82
2021/11/22 09:34:46;;;;;;;0.77;0.37;;;7.40;99.90;;;;;;5100140;28;20203;-81
2021/11/22 09:37:11;;;;;;;0.13;0.13;;;7.20;99.90;;;;;;5115810;27;20291;-82
2021/11/22 09:39:37;;;;;;;0.20;0.20;;;7.40;99.90;;;;;;5083377;28;20193;-82
2021/11/22 09:42:03;;;;;;;0.10;0.10;;;7.30;99.90;;;;;;5085829;28;20193;-81
2021/11/22 09:44:29;;;;;;;0.40;0.40;;;7.60;99.90;;;;;;5087290;28;20185;-81
2021/11/22 09:46:54;;;;;;;0.10;0.10;;;7.60;99.90;;;;;;5087762;28;20192;-80
2021/11/22 09:49:21;;;;;;;0.10;0.10;;;7.40;99.90;;;;;;5091869;28;20192;-81
2021/11/22 09:51:47;;;;;;;0.10;0.10;;;7.20;99.90;;;;;;5094313;28;20573;-80
2021/11/22 09:54:13;;;;;;;0.10;0.10;;;7.10;99.90;;;;;;5092119;28;20188;-81
2021/11/22 09:56:39;;;;;;;0.00;0.00;;;7.10;99.90;;;;;;5090314;28;20213;-82
2021/11/22 09:59:06;;;;;;;0.10;0.10;;;7.10;99.90;;;;;;5096030;28;20194;-83
2021/11/22 10:01:35;;;;;;;0.10;0.10;;;7.10;99.90;;;;;;5085558;28;20552;-82
2021/11/22 10:04:11;;;;;;;0.10;0.10;;;7.20;99.90;;;;;;5088301;28;20185;-82
2021/11/22 10:06:47;;;;;;;0.00;0.00;;;7.30;99.90;;;;;;5088914;28;20192;-82
2021/11/22 10:09:39;;;;;;;0.10;0.10;;;7.40;99.90;;;;;;5115139;27;20188;-82
2021/11/22 10:12:21;;;;;;;0.10;0.10;;;7.40;99.90;;;;;;5088904;28;20208;-84
2021/11/22 10:14:50;;;;;;;0.10;0.10;;;7.40;99.90;;;;;;5092059;28;20192;-83
2021/11/22 10:17:33;;;;;;;0.10;0.10;;;7.20;99.90;;;;;;5084354;28;20203;-83
2021/11/22 10:20:08;;;;;;;0.00;0.00;;;7.20;99.90;;;;;;5081323;28;20180;-83
2021/11/22 10:22:48;;;;;;;0.27;0.20;;;7.20;99.90;;;;;;5091403;28;20217;-82
2021/11/22 10:25:21;;;;;;;3.30;0.40;;;7.30;99.90;;;;;;5088987;28;20180;-83
2021/11/22 10:27:50;;;;;;;0.10;0.10;;;7.40;99.90;;;;;;5097850;28;20210;-83
2021/11/22 10:30:24;;;;;;;0.10;0.10;;;7.60;99.90;;;;;;5088982;28;20184;-83
2021/11/22 10:32:53;;;;;;;0.10;0.10;;;7.50;99.90;;;;;;5096159;28;20184;-84
2021/11/22 10:35:23;;;;;;;0.30;0.30;;;7.50;99.90;;;;;;5089876;28;20217;-84
2021/11/22 10:38:10;;;;;;;0.10;0.10;;;7.50;99.90;;;;;;5088220;28;20188;-83
2021/11/22 10:40:37;;;;;;;0.10;0.10;;;7.40;99.90;;;;;;5091082;28;20213;-83
2021/11/22 10:43:04;;;;;;;0.10;0.10;;;7.40;99.90;;;;;;5088869;28;20219;-83
2021/11/22 10:45:41;;;;;;;0.20;0.20;;;7.30;99.90;;;;;;5091797;28;20191;-83
2021/11/22 10:48:25;;;;;;;0.10;0.10;;;7.30;99.90;;;;;;5088452;28;20180;-82
2021/11/22 10:51:00;;;;;;;0.10;0.10;;;7.20;99.90;;;;;;5085077;28;20545;-82
2021/11/22 10:53:35;;;;;;;0.10;0.10;;;7.30;99.90;;;;;;5090189;28;20191;-80
2021/11/22 10:56:03;;;;;;;0.20;0.20;;;7.40;99.90;;;;;;5089468;28;20273;-79
2021/11/22 10:58:51;;;;;;;0.10;0.10;;;7.40;99.90;;;;;;5090795;28;20724;-80
2021/11/22 11:01:27;;;;;;;0.13;0.13;;;7.40;99.90;;;;;;5083254;28;20667;-80
2021/11/22 11:04:00;;;;;;;0.00;0.00;;;7.30;99.90;;;;;;5087144;28;20191;-81
2021/11/22 11:06:41;;;;;;;0.10;0.10;;;7.30;99.90;;;;;;5084541;28;20176;-81
2021/11/22 11:09:38;;;;;;;0.03;0.03;;;7.20;99.90;;;;;;5098152;28;20217;-81
2021/11/22 11:12:14;;;;;;;0.00;0.00;;;7.30;99.90;;;;;;5092141;28;20205;-81
2021/11/22 11:14:43;;;;;;;0.13;0.13;;;7.40;99.90;;;;;;5119513;27;20190;-81
2021/11/22 11:17:10;;;;;;;0.47;0.47;;;7.40;99.90;;;;;;5091453;28;20240;-81
2021/11/22 11:19:37;;;;;;;0.13;0.13;;;7.40;99.90;;;;;;5092716;28;20175;-81
2021/11/22 11:22:03;;;;;;;0.03;0.03;;;7.60;99.90;;;;;;5086744;28;20296;-81
2021/11/22 11:24:29;;;;;;;0.20;0.20;;;7.80;99.90;;;;;;5085069;28;21138;-81
2021/11/22 11:26:54;;;;;;;0.10;0.10;;;8.00;99.90;;;;;;5088906;28;20186;-81
2021/11/22 11:29:20;;;;;;;0.10;0.10;;;8.10;99.90;;;;;;5084970;28;20202;-81
2021/11/22 11:31:45;;;;;;;0.10;0.10;;;8.40;99.90;;;;;;5084131;28;20196;-82
2021/11/22 11:34:13;;;;;;;0.10;0.10;;;8.30;99.90;;;;;;5096034;28;20204;-82
2021/11/22 11:36:47;;;;;;;0.20;0.20;;;8.50;99.90;;;;;;5084723;28;20215;-82
2021/11/22 11:39:50;;;;;;;1.17;0.70;;;8.40;99.90;;;;;;5085476;28;20183;-81
2021/11/22 11:42:34;;;;;;;0.27;0.10;;;8.10;99.90;;;;;;5092438;28;20269;-81
2021/11/22 11:44:59;;;;;;;0.00;0.00;;;7.90;99.90;;;;;;5087893;28;20193;-81
2021/11/22 11:47:50;;;;;;;0.10;0.10;;;8.10;99.90;;;;;;5093013;28;20184;-81
2021/11/22 11:50:25;;;;;;;0.10;0.10;;;8.10;99.90;;;;;;5090081;28;20588;-81
2021/11/22 11:52:55;;;;;;;0.20;0.20;;;8.10;99.90;;;;;;5088475;28;20211;-81
2021/11/22 11:55:20;;;;;;;0.10;0.10;;;8.10;99.90;;;;;;5089584;28;20660;-81
2021/11/22 11:57:46;;;;;;;0.10;0.10;;;8.10;99.90;;;;;;5093371;28;20214;-81
2021/11/22 12:00:26;;;;;;;0.50;0.50;;;8.10;99.90;;;;;;5091939;28;20215;-81
2021/11/22 12:03:03;;;;;;;1.27;0.30;;;8.10;99.90;;;;;;5091785;28;20291;-81
2021/11/22 12:05:44;;;;;;;0.20;0.20;;;8.00;99.90;;;;;;5089156;28;20198;-81
2021/11/22 12:08:33;;;;;;;0.10;0.10;;;7.90;99.90;;;;;;5091447;28;20202;-82
2021/11/22 12:11:04;;;;;;;0.10;0.10;;;7.90;99.90;;;;;;5086001;28;20213;-81
2021/11/22 12:14:03;;;;;;;0.17;0.17;;;7.90;99.90;;;;;;5087143;28;20275;-82
2021/11/22 12:16:42;;;;;;;0.40;0.30;;;7.90;99.90;;;;;;5041688;28;20251;-81
2021/11/22 12:19:40;;;;;;;0.03;0.03;;;7.90;99.90;;;;;;5085272;28;20206;-83
2021/11/22 12:22:16;;;;;;;0.17;0.17;;;7.90;99.90;;;;;;5094356;28;20725;-82
2021/11/22 12:24:44;;;;;;;0.20;0.20;;;8.00;99.90;;;;;;5089300;28;20187;-82
2021/11/22 12:27:28;;;;;;;0.10;0.10;;;7.90;99.90;;;;;;5090346;28;20276;-82
2021/11/22 12:29:58;;;;;;;0.10;0.10;;;7.90;99.90;;;;;;5085564;28;20180;-82
2021/11/22 12:32:24;;;;;;;0.03;0.03;;;7.80;99.90;;;;;;5082848;28;20228;-82
2021/11/22 12:34:56;;;;;;;0.10;0.10;;;7.70;99.90;;;;;;5081305;28;20189;-81
2021/11/22 12:37:27;;;;;;;0.20;0.20;;;7.80;99.90;;;;;;5088041;28;20777;-81
2021/11/22 12:39:54;;;;;;;0.30;0.10;;;7.80;99.90;;;;;;5085542;28;20190;-81
2021/11/22 12:42:23;;;;;;;0.10;0.10;;;7.70;99.90;;;;;;5085066;28;20221;-81
2021/11/22 12:45:02;;;;;;;0.27;0.27;;;7.80;99.90;;;;;;5081395;28;20196;-81
2021/11/22 12:47:29;;;;;;;0.13;0.13;;;7.70;99.90;;;;;;5085677;28;20188;-81
2021/11/22 12:50:17;;;;;;;0.10;0.10;;;7.70;99.90;;;;;;5089370;28;20235;-81
2021/11/22 12:53:11;;;;;;;0.10;0.10;;;7.70;99.90;;;;;;5087477;28;20187;-81
2021/11/22 12:55:40;;;;;;;0.10;0.10;;;7.70;99.90;;;;;;5090776;28;20208;-81
2021/11/22 12:58:19;;;;;;;0.20;0.20;;;7.60;99.90;;;;;;5120311;28;20188;-81
2021/11/22 13:00:46;;;;;;;0.00;0.00;;;7.70;99.90;;;;;;5083678;28;20566;-81
2021/11/22 13:03:17;;;;;;;0.20;0.20;;;7.60;99.90;;;;;;5083736;28;20231;-81
2021/11/22 13:05:46;;;;;;;0.10;0.10;;;7.70;99.90;;;;;;5092565;28;20188;-81
2021/11/22 13:08:18;;;;;;;0.30;0.30;;;7.60;99.90;;;;;;5085202;28;20558;-81
2021/11/22 13:10:52;;;;;;;1.00;0.10;;;7.60;99.90;;;;;;5089664;28;20215;-81
2021/11/22 13:15:59;;;;;;;0.20;0.20;;;7.60;99.90;;;;;;5089552;28;20196;-81
2021/11/22 13:18:30;;;;;;;0.30;0.30;;;7.50;99.90;;;;;;5088028;28;20711;-80
2021/11/22 13:20:58;;;;;;;0.10;0.10;;;7.60;99.90;;;;;;5096816;28;20296;-80
2021/11/22 13:23:28;;;;;;;0.17;0.17;;;7.50;99.90;;;;;;5091065;28;20211;-80
2021/11/22 13:25:54;;;;;;;0.10;0.10;;;7.50;99.90;;;;;;5091697;28;20191;-80
2021/11/22 13:28:21;;;;;;;0.10;0.10;;;7.60;99.90;;;;;;5092526;28;20175;-80
2021/11/22 13:30:47;;;;;;;0.10;0.10;;;7.60;99.90;;;;;;5091614;28;20205;-80
2021/11/22 13:33:14;;;;;;;0.10;0.10;;;7.60;99.90;;;;;;5086975;28;20265;-80
2021/11/22 13:35:41;;;;;;;0.10;0.10;;;7.60;99.90;;;;;;5092717;28;20184;-80
2021/11/22 13:38:11;;;;;;;0.43;0.20;;;7.70;99.90;;;;;;5091290;28;20177;-81
2021/11/22 13:40:38;;;;;;;0.10;0.10;;;7.70;99.90;;;;;;5088563;28;20197;-80
2021/11/22 13:43:09;;;;;;;0.10;0.10;;;7.80;99.90;;;;;;5083947;28;20222;-79
2021/11/22 13:45:36;;;;;;;0.10;0.10;;;8.00;99.90;;;;;;5090347;28;20208;-80
2021/11/22 13:48:02;;;;;;;0.03;0.03;;;7.80;99.90;;;;;;5085024;28;20650;-80
2021/11/22 13:50:46;;;;;;;0.20;0.20;;;7.80;99.90;;;;;;5088408;28;20218;-80
2021/11/22 13:53:13;;;;;;;0.10;0.10;;;7.70;99.90;;;;;;5091272;28;20173;-80
2021/11/22 13:55:40;;;;;;;0.10;0.10;;;7.60;99.90;;;;;;5090969;28;20192;-79
2021/11/22 13:58:14;;;;;;;0.10;0.10;;;7.50;99.90;;;;;;5091703;28;20211;-80
2021/11/22 14:00:57;;;;;;;0.10;0.10;;;7.50;99.90;;;;;;5092410;28;20207;-81
2021/11/22 14:03:27;;;;;;;0.00;0.00;;;7.40;99.90;;;;;;5082797;28;20595;-80
2021/11/22 14:05:54;;;;;;;0.20;0.20;;;7.30;99.90;;;;;;5092588;28;20188;-80
2021/11/22 14:08:20;;;;;;;0.40;0.40;;;7.30;99.90;;;;;;5090994;28;20212;-80
2021/11/22 14:10:46;;;;;;;0.10;0.10;;;7.30;99.90;;;;;;5095602;28;20207;-80
2021/11/22 14:13:17;;;;;;;0.10;0.10;;;7.30;99.90;;;;;;5089737;28;20188;-80
2021/11/22 14:15:45;;;;;;;0.10;0.10;;;7.30;99.90;;;;;;5093440;28;20192;-80
2021/11/22 14:18:15;;;;;;;0.10;0.10;;;7.30;99.90;;;;;;5099729;28;20550;-79
2021/11/22 14:21:07;;;;;;;0.20;0.20;;;7.20;99.90;;;;;;5087713;28;20197;-80
2021/11/22 14:23:33;;;;;;;0.33;0.23;;;7.20;99.90;;;;;;5079042;28;20193;-80
2021/11/22 14:26:10;;;;;;;0.40;0.40;;;7.20;99.90;;;;;;5088700;28;20207;-81
2021/11/22 14:28:47;;;;;;;0.57;0.20;;;7.20;99.90;;;;;;5089587;28;20195;-80
2021/11/22 14:31:27;;;;;;;0.10;0.10;;;7.20;99.90;;;;;;5093238;28;20284;-79
2021/11/22 14:33:53;;;;;;;0.10;0.10;;;7.10;99.90;;;;;;5091916;28;20553;-79
2021/11/22 14:36:19;;;;;;;0.10;0.10;;;7.00;99.90;;;;;;5098120;28;20196;-80
2021/11/22 14:38:56;;;;;;;0.00;0.00;;;7.00;99.90;;;;;;5095626;28;20187;-80
2021/11/22 14:41:22;;;;;;;0.00;0.00;;;6.90;99.90;;;;;;5091062;28;20201;-80
2021/11/22 14:43:50;;;;;;;0.10;0.10;;;6.80;99.90;;;;;;5098878;28;20237;-78
2021/11/22 14:46:20;;;;;;;0.10;0.10;;;6.80;99.90;;;;;;5085809;28;20199;-79
2021/11/22 14:48:47;;;;;;;0.00;0.00;;;6.80;99.90;;;;;;5090127;28;20190;-79
2021/11/22 14:51:18;;;;;;;0.10;0.10;;;6.80;99.90;;;;;;5085307;28;20201;-79